Time;durP1;ratioP1;P1;durP2;ratioP2;P2;SDS_P1;SDS_P2;PMS_P1;PMS_P2;Temp;Humidity;BMP_temperature;BMP_pressure;BME280_temperature;BME280_humidity;BME280_pressure;Samples;Min_cycle;Max_cycle;Signal;HPM_P1;HPM_P2
2021/10/31 00:00:08;;;;;;;150.85;80.28;;;;;;;1.94;73.15;102431.41;1758474;81;20983;-80
2021/10/31 00:02:41;;;;;;;140.03;80.32;;;;;;;1.92;73.12;102433.55;1758530;80;22163;-80
2021/10/31 00:05:09;;;;;;;147.80;80.38;;;;;;;1.88;73.10;102428.78;1758605;81;21403;-79
2021/10/31 00:07:36;;;;;;;137.00;78.57;;;;;;;1.83;73.25;102438.25;1758208;80;21370;-79
2021/10/31 00:10:05;;;;;;;143.75;81.75;;;;;;;1.77;73.53;102434.33;1758351;80;21409;-79
2021/10/31 00:12:34;;;;;;;150.93;86.02;;;;;;;1.72;73.74;102438.19;1758774;80;20941;-79
2021/10/31 00:15:01;;;;;;;161.85;89.58;;;;;;;1.69;73.88;102431.71;1759718;80;20889;-79
2021/10/31 00:17:28;;;;;;;148.50;82.35;;;;;;;1.68;73.89;102427.81;1758322;80;21048;-78
2021/10/31 00:19:55;;;;;;;116.22;65.37;;;;;;;1.68;74.19;102434.28;1758252;80;21390;-79
2021/10/31 00:22:22;;;;;;;133.12;69.75;;;;;;;1.69;74.34;102432.11;1758546;80;21029;-77
2021/10/31 00:24:49;;;;;;;126.58;68.78;;;;;;;1.71;74.44;102432.98;1758245;80;21338;-81
2021/10/31 00:27:16;;;;;;;126.27;69.90;;;;;;;1.73;74.33;102428.69;1758340;81;20868;-80
2021/10/31 00:29:44;;;;;;;113.80;65.25;;;;;;;1.73;74.29;102424.38;1758574;80;21534;-79
2021/10/31 00:32:10;;;;;;;126.35;68.57;;;;;;;1.75;74.14;102430.43;1758206;80;21452;-80
2021/10/31 00:34:38;;;;;;;125.97;71.72;;;;;;;1.76;74.11;102423.56;1751311;81;20961;-80
2021/10/31 00:37:05;;;;;;;133.12;69.12;;;;;;;1.77;74.02;102423.55;1745501;81;21406;-81
2021/10/31 00:39:32;;;;;;;122.60;64.00;;;;;;;1.74;73.75;102422.25;1745687;81;21457;-80
2021/10/31 00:41:58;;;;;;;110.37;56.90;;;;;;;1.70;73.69;102419.20;1745228;81;21125;-79
2021/10/31 00:44:25;;;;;;;92.72;53.10;;;;;;;1.68;73.64;102413.16;1745553;82;20984;-78
2021/10/31 00:46:53;;;;;;;117.40;59.60;;;;;;;1.66;73.71;102420.89;1744553;81;20873;-79
2021/10/31 00:49:20;;;;;;;107.17;55.65;;;;;;;1.62;73.67;102418.28;1744965;82;20976;-79
2021/10/31 00:51:47;;;;;;;103.05;55.60;;;;;;;1.59;73.85;102417.84;1744795;82;21446;-78
2021/10/31 00:54:14;;;;;;;102.00;57.25;;;;;;;1.58;74.00;102410.06;1745028;81;21547;-80
2021/10/31 00:56:41;;;;;;;105.35;52.70;;;;;;;1.56;74.42;102411.37;1734165;82;21514;-80
2021/10/31 00:59:08;;;;;;;102.20;58.90;;;;;;;1.59;75.00;102406.64;1745642;82;20988;-80
2021/10/31 01:01:37;;;;;;;112.08;60.90;;;;;;;1.64;74.98;102411.40;1744967;81;20904;-81
2021/10/31 01:04:04;;;;;;;111.20;59.10;;;;;;;1.66;74.68;102405.38;1745034;81;20979;-79
2021/10/31 01:07:06;;;;;;;112.35;60.15;;;;;;;1.66;74.31;102410.55;1745226;82;21108;-79
2021/10/31 01:09:51;;;;;;;109.80;58.20;;;;;;;1.64;74.40;102405.80;1745289;82;20921;-79
2021/10/31 01:13:04;;;;;;;136.95;65.90;;;;;;;1.58;74.11;102403.59;1745494;81;22530;-79
2021/10/31 01:16:14;;;;;;;105.15;55.28;;;;;;;1.52;73.94;102401.86;1745139;80;21019;-81
2021/10/31 01:19:20;;;;;;;112.28;56.33;;;;;;;1.48;73.99;102402.69;1744833;81;20921;-80
2021/10/31 01:22:02;;;;;;;113.57;55.67;;;;;;;1.43;74.11;102400.08;1745206;81;21766;-79
2021/10/31 01:24:52;;;;;;;106.20;55.38;;;;;;;1.41;74.08;102400.92;1745085;80;20882;-80
2021/10/31 01:27:58;;;;;;;125.27;61.98;;;;;;;1.38;73.98;102400.88;1745102;81;20917;-82
2021/10/31 01:31:12;;;;;;;113.40;55.05;;;;;;;1.35;73.86;102397.00;1744526;81;20909;-79
2021/10/31 01:34:06;;;;;;;115.75;55.95;;;;;;;1.28;73.77;102404.28;1744935;81;21010;-78
2021/10/31 01:37:05;;;;;;;102.97;52.65;;;;;;;1.24;73.81;102405.56;1744732;80;21759;-78
2021/10/31 01:40:15;;;;;;;102.80;50.60;;;;;;;1.21;73.94;102403.37;1744530;81;20941;-79
2021/10/31 01:43:03;;;;;;;94.15;48.17;;;;;;;1.17;74.14;102402.47;1738559;81;20976;-78
2021/10/31 01:46:03;;;;;;;98.45;50.35;;;;;;;1.15;74.33;102402.87;1744961;81;21019;-80
2021/10/31 01:49:10;;;;;;;108.25;56.33;;;;;;;1.13;74.39;102393.39;1714736;81;20936;-79
2021/10/31 01:51:41;;;;;;;112.08;59.88;;;;;;;1.11;74.46;102399.86;1745017;81;21142;-79
2021/10/31 01:54:16;;;;;;;107.90;58.98;;;;;;;1.10;74.67;102397.25;1744604;81;20921;-79
2021/10/31 01:56:44;;;;;;;116.95;61.50;;;;;;;1.08;74.64;102396.37;1744938;81;20944;-79
2021/10/31 01:59:19;;;;;;;101.95;57.10;;;;;;;1.10;74.77;102394.67;1744563;81;21406;-79
2021/10/31 02:01:46;;;;;;;100.62;54.18;;;;;;;1.10;74.67;102394.23;1745160;80;20921;-79
2021/10/31 02:04:14;;;;;;;93.25;50.25;;;;;;;1.10;74.46;102396.81;1744670;82;21157;-79
2021/10/31 02:06:44;;;;;;;96.80;47.20;;;;;;;1.07;74.08;102398.50;1744717;82;21019;-78
2021/10/31 02:09:13;;;;;;;91.42;44.45;;;;;;;1.00;73.80;102393.70;1745974;81;20988;-80
2021/10/31 02:11:40;;;;;;;77.92;40.63;;;;;;;0.94;73.79;102393.25;1744727;81;20948;-79
2021/10/31 02:14:08;;;;;;;76.10;40.43;;;;;;;0.90;74.01;102390.20;1744579;81;20893;-79
2021/10/31 02:16:35;;;;;;;71.77;39.13;;;;;;;0.88;74.07;102387.16;1744744;80;21566;-79
2021/10/31 02:19:05;;;;;;;71.00;38.33;;;;;;;0.83;74.34;102383.25;1744508;82;20881;-78
2021/10/31 02:21:35;;;;;;;75.30;40.75;;;;;;;0.82;74.60;102384.98;1744497;81;20913;-80
2021/10/31 02:24:07;;;;;;;72.47;39.70;;;;;;;0.83;74.94;102381.96;1744639;81;20908;-78
2021/10/31 02:26:36;;;;;;;68.55;36.63;;;;;;;0.86;75.00;102390.16;1745034;81;20921;-79
2021/10/31 02:29:07;;;;;;;73.30;38.30;;;;;;;0.85;75.17;102391.02;1744570;81;21142;-79
2021/10/31 02:31:32;;;;;;;70.35;38.02;;;;;;;0.83;75.31;102389.70;1744584;81;20929;-81
2021/10/31 02:33:58;;;;;;;68.90;39.40;;;;;;;0.82;75.11;102385.38;1744685;81;20900;-80
2021/10/31 02:36:25;;;;;;;73.10;39.40;;;;;;;0.80;74.93;102381.91;1756829;80;21478;-80
2021/10/31 02:38:52;;;;;;;72.95;38.50;;;;;;;0.77;74.81;102382.76;1757939;81;20896;-81
2021/10/31 02:41:19;;;;;;;68.62;35.05;;;;;;;0.74;74.73;102384.03;1758037;81;21570;-80
2021/10/31 02:43:46;;;;;;;70.67;35.63;;;;;;;0.72;74.76;102388.75;1758048;81;20928;-80
2021/10/31 02:46:14;;;;;;;65.45;35.00;;;;;;;0.69;74.75;102388.30;1757969;81;20928;-80
2021/10/31 02:48:42;;;;;;;61.65;31.90;;;;;;;0.68;74.70;102376.22;1757861;80;20975;-80
2021/10/31 02:51:39;;;;;;;56.35;33.13;;;;;;;0.69;74.73;102377.97;1741030;81;21374;-81
2021/10/31 02:54:10;;;;;;;68.72;34.55;;;;;;;0.70;74.77;102376.25;1737839;81;21822;-80
2021/10/31 02:56:46;;;;;;;60.25;32.98;;;;;;;0.67;74.87;102371.92;1757843;80;20936;-81
2021/10/31 02:59:35;;;;;;;54.33;32.87;;;;;;;0.63;74.71;102370.16;1758146;81;21410;-81
2021/10/31 03:02:03;;;;;;;54.03;32.08;;;;;;;0.58;74.96;102373.13;1752493;81;20974;-81
2021/10/31 03:04:30;;;;;;;57.55;31.87;;;;;;;0.58;74.98;102373.98;1758213;81;21070;-79
2021/10/31 03:06:57;;;;;;;54.10;31.70;;;;;;;0.58;75.14;102370.55;1741672;81;21163;-80
2021/10/31 03:09:24;;;;;;;54.23;30.10;;;;;;;0.59;75.16;102367.10;1757927;81;20936;-81
2021/10/31 03:12:00;;;;;;;44.95;29.72;;;;;;;0.59;75.16;102365.38;1757909;80;21042;-81
2021/10/31 03:14:27;;;;;;;59.73;29.87;;;;;;;0.60;75.10;102364.95;1757979;80;20900;-81
2021/10/31 03:16:55;;;;;;;52.50;29.45;;;;;;;0.57;74.97;102370.95;1758179;80;20920;-81
2021/10/31 03:19:22;;;;;;;45.10;29.57;;;;;;;0.57;74.85;102368.80;1757987;81;21535;-80
2021/10/31 03:21:49;;;;;;;35.08;22.62;;;;;;;0.57;74.74;102368.80;1758008;81;21517;-80
2021/10/31 03:24:16;;;;;;;41.70;23.85;;;;;;;0.55;74.67;102365.34;1757582;80;20912;-80
2021/10/31 03:26:42;;;;;;;41.35;24.32;;;;;;;0.50;74.86;102364.01;1758236;81;21453;-80
2021/10/31 03:29:09;;;;;;;43.15;25.00;;;;;;;0.47;75.10;102356.64;1758040;81;20880;-80
2021/10/31 03:31:36;;;;;;;42.33;24.63;;;;;;;0.46;75.24;102363.53;1758265;81;21362;-81
2021/10/31 03:34:03;;;;;;;46.60;26.35;;;;;;;0.44;75.24;102366.95;1757968;80;20996;-81
2021/10/31 03:36:31;;;;;;;37.05;23.50;;;;;;;0.44;75.29;102365.23;1757769;81;20896;-82
2021/10/31 03:38:57;;;;;;;42.38;24.60;;;;;;;0.45;75.29;102357.09;1758394;80;20920;-81
2021/10/31 03:41:24;;;;;;;42.45;24.40;;;;;;;0.45;75.19;102351.92;1758214;81;20967;-80
2021/10/31 03:43:51;;;;;;;48.60;23.92;;;;;;;0.44;74.97;102350.17;1758119;81;21109;-82
2021/10/31 03:46:18;;;;;;;44.93;24.23;;;;;;;0.39;74.92;102350.12;1758590;81;20929;-80
2021/10/31 03:48:44;;;;;;;47.05;25.00;;;;;;;0.37;74.92;102355.70;1758063;80;20963;-81
2021/10/31 03:51:11;;;;;;;40.20;23.30;;;;;;;0.31;75.06;102351.36;1758837;81;20995;-81
2021/10/31 03:53:38;;;;;;;48.73;25.20;;;;;;;0.27;75.22;102349.59;1758229;81;21476;-80
2021/10/31 03:56:05;;;;;;;43.10;24.40;;;;;;;0.25;75.40;102347.42;1758245;81;21480;-80
2021/10/31 03:58:32;;;;;;;34.98;23.60;;;;;;;0.24;75.42;102344.38;1758024;81;20936;-79
2021/10/31 04:01:00;;;;;;;49.25;26.00;;;;;;;0.25;75.28;102340.97;1757937;80;20908;-79
2021/10/31 04:03:28;;;;;;;45.52;25.12;;;;;;;0.25;75.46;102335.81;1759234;81;20927;-79
2021/10/31 04:05:54;;;;;;;74.47;35.17;;;;;;;0.27;75.52;102328.95;1758205;80;20912;-81
2021/10/31 04:08:22;;;;;;;296.65;140.77;;;;;;;0.30;75.66;102328.97;1757931;81;21984;-81
2021/10/31 04:10:49;;;;;;;264.60;128.40;;;;;;;0.33;75.69;102324.26;1757927;81;20916;-80
2021/10/31 04:13:16;;;;;;;242.18;117.15;;;;;;;0.36;75.52;102326.89;1758062;81;20853;-78
2021/10/31 04:15:42;;;;;;;215.77;110.30;;;;;;;0.36;75.50;102317.42;1757789;81;20940;-79
2021/10/31 04:18:13;;;;;;;216.05;104.92;;;;;;;0.37;75.58;102317.85;1757883;80;20944;-81
2021/10/31 04:20:40;;;;;;;152.62;81.17;;;;;;;0.38;75.65;102312.29;1758010;81;22149;-80
2021/10/31 04:23:07;;;;;;;121.00;69.85;;;;;;;0.39;75.69;102316.16;1758216;80;20944;-80
2021/10/31 04:25:34;;;;;;;110.35;60.28;;;;;;;0.39;75.51;102317.44;1758424;81;20892;-79
2021/10/31 04:28:01;;;;;;;102.30;56.92;;;;;;;0.39;75.29;102320.45;1758474;81;20908;-81
2021/10/31 04:30:29;;;;;;;104.12;59.48;;;;;;;0.39;75.28;102317.44;1758168;81;21330;-81
2021/10/31 04:32:55;;;;;;;130.57;72.10;;;;;;;0.36;75.28;102316.13;1758083;81;21120;-80
2021/10/31 04:35:22;;;;;;;131.67;70.72;;;;;;;0.34;75.25;102315.25;1755473;80;21324;-80
2021/10/31 04:37:51;;;;;;;136.25;75.32;;;;;;;0.33;75.13;102312.64;1744908;81;20885;-79
2021/10/31 04:40:21;;;;;;;153.50;83.55;;;;;;;0.33;75.01;102309.63;1744766;80;20897;-79
2021/10/31 04:42:47;;;;;;;161.18;91.35;;;;;;;0.30;75.01;102310.91;1744882;81;20994;-81
2021/10/31 04:45:13;;;;;;;164.70;92.40;;;;;;;0.33;75.01;102311.36;1744843;81;21506;-81
2021/10/31 04:47:40;;;;;;;147.02;78.65;;;;;;;0.31;74.81;102308.78;1744792;81;21520;-80
2021/10/31 04:50:08;;;;;;;123.30;62.30;;;;;;;0.31;74.88;102315.63;1744716;81;20924;-80
2021/10/31 04:52:36;;;;;;;99.80;54.83;;;;;;;0.29;74.80;102314.35;1744402;81;21308;-78
2021/10/31 04:55:03;;;;;;;81.92;40.78;;;;;;;0.28;74.65;102321.64;1744707;82;20846;-77
2021/10/31 04:57:31;;;;;;;86.47;44.13;;;;;;;0.24;74.62;102317.72;1744864;81;21150;-78
2021/10/31 04:59:58;;;;;;;91.35;48.05;;;;;;;0.22;74.82;102317.70;1745743;81;20925;-78
2021/10/31 05:02:26;;;;;;;87.70;47.58;;;;;;;0.22;74.85;102319.42;1744800;82;21398;-78
2021/10/31 05:04:53;;;;;;;98.22;52.98;;;;;;;0.21;75.02;102317.27;1745397;82;20965;-80
2021/10/31 05:07:20;;;;;;;78.37;46.63;;;;;;;0.24;75.18;102321.16;1744838;81;20881;-81
2021/10/31 05:09:47;;;;;;;89.05;49.18;;;;;;;0.29;75.30;102320.80;1745025;81;21730;-80
2021/10/31 05:12:14;;;;;;;85.47;47.17;;;;;;;0.34;75.43;102318.27;1744380;81;20984;-81
2021/10/31 05:14:42;;;;;;;102.32;51.18;;;;;;;0.34;75.41;102316.98;1744625;81;20987;-81
2021/10/31 05:17:09;;;;;;;99.62;52.93;;;;;;;0.35;75.57;102316.97;1744911;81;20948;-83
2021/10/31 05:19:36;;;;;;;105.32;55.55;;;;;;;0.38;75.44;102320.89;1744830;81;20893;-80
2021/10/31 05:22:05;;;;;;;107.87;62.65;;;;;;;0.41;75.29;102318.76;1744766;81;21148;-81
2021/10/31 05:24:31;;;;;;;94.58;55.52;;;;;;;0.46;75.54;102320.95;1744883;81;21438;-81
2021/10/31 05:26:59;;;;;;;87.53;49.95;;;;;;;0.56;75.92;102328.37;1744708;81;20869;-80
2021/10/31 05:29:26;;;;;;;87.88;54.83;;;;;;;0.70;76.36;102328.48;1744973;81;20944;-81
2021/10/31 05:31:52;;;;;;;93.22;52.78;;;;;;;0.87;76.65;102326.02;1744744;81;20980;-79
2021/10/31 05:34:19;;;;;;;86.50;51.85;;;;;;;1.02;76.47;102332.19;1744781;81;21033;-78
2021/10/31 05:36:46;;;;;;;91.02;52.20;;;;;;;1.14;76.15;102330.55;1753029;80;20857;-79
2021/10/31 05:39:13;;;;;;;77.05;49.38;;;;;;;1.25;76.15;102340.52;1757970;81;20979;-83
2021/10/31 05:41:43;;;;;;;81.37;50.33;;;;;;;1.40;76.41;102333.27;1758581;81;20935;-82
2021/10/31 05:44:10;;;;;;;79.40;52.58;;;;;;;1.56;76.61;102337.68;1758394;81;20928;-81
2021/10/31 05:46:37;;;;;;;101.33;55.52;;;;;;;1.83;76.87;102338.66;1758509;80;21490;-80
2021/10/31 05:49:04;;;;;;;84.92;55.52;;;;;;;2.14;76.81;102333.16;1706765;81;20932;-82
2021/10/31 05:51:31;;;;;;;98.15;60.23;;;;;;;2.73;77.22;102339.27;1757906;80;20869;-82
2021/10/31 05:53:58;;;;;;;81.92;53.75;;;;;;;3.51;76.18;102340.90;1758005;81;20932;-83
2021/10/31 05:56:25;;;;;;;89.37;57.15;;;;;;;4.36;74.64;102340.95;1758941;81;20884;-80
2021/10/31 05:58:52;;;;;;;95.22;58.73;;;;;;;5.24;72.00;102338.92;1758243;80;21505;-80
2021/10/31 06:01:19;;;;;;;96.00;62.03;;;;;;;5.99;69.55;102339.39;1758200;81;20884;-80
2021/10/31 06:03:45;;;;;;;93.25;64.12;;;;;;;6.68;67.58;102340.59;1757943;81;20916;-80
2021/10/31 06:06:13;;;;;;;91.60;59.83;;;;;;;7.28;65.61;102341.72;1758524;81;20955;-81
2021/10/31 06:08:40;;;;;;;97.42;64.90;;;;;;;7.56;63.63;102335.95;1758186;81;20896;-83
2021/10/31 06:11:08;;;;;;;105.67;66.33;;;;;;;7.49;62.36;102339.13;1758505;81;21089;-82
2021/10/31 06:13:37;;;;;;;104.60;68.75;;;;;;;7.24;61.99;102342.20;1758196;81;21331;-82
2021/10/31 06:16:06;;;;;;;107.63;66.37;;;;;;;6.94;62.19;102331.89;1758245;80;21010;-81
2021/10/31 06:18:35;;;;;;;102.05;65.22;;;;;;;6.69;62.53;102330.11;1758640;81;20986;-82
2021/10/31 06:21:03;;;;;;;103.47;64.82;;;;;;;6.44;62.98;102325.73;1758683;80;20968;-81
2021/10/31 06:23:30;;;;;;;124.18;69.87;;;;;;;6.21;63.62;102321.73;1758699;80;21113;-83
2021/10/31 06:25:57;;;;;;;186.32;91.87;;;;;;;6.05;64.32;102317.63;1759397;81;20833;-81
2021/10/31 06:28:24;;;;;;;203.45;104.03;;;;;;;5.93;64.95;102313.84;1758404;81;20971;-81
2021/10/31 06:30:51;;;;;;;250.72;119.30;;;;;;;5.86;65.46;102312.20;1759747;81;20931;-81
2021/10/31 06:33:18;;;;;;;210.63;105.58;;;;;;;5.78;66.16;102313.17;1759410;80;20849;-79
2021/10/31 06:35:45;;;;;;;175.62;88.78;;;;;;;5.73;66.76;102320.16;1757748;80;21128;-80
2021/10/31 06:38:12;;;;;;;137.37;72.08;;;;;;;5.73;67.38;102318.00;1745670;81;20987;-83
2021/10/31 06:40:39;;;;;;;128.02;74.45;;;;;;;5.70;67.91;102317.61;1745490;81;20885;-82
2021/10/31 06:43:06;;;;;;;92.22;53.90;;;;;;;5.72;68.65;102308.48;1746357;81;20984;-83
2021/10/31 06:45:33;;;;;;;79.42;47.45;;;;;;;5.73;69.14;102305.84;1746351;81;20976;-83
2021/10/31 06:48:03;;;;;;;68.95;45.00;;;;;;;5.76;69.65;102316.68;1746156;80;21832;-81
2021/10/31 06:50:29;;;;;;;68.67;45.78;;;;;;;5.76;70.15;102304.52;1745885;81;20893;-80
2021/10/31 06:52:56;;;;;;;67.42;46.05;;;;;;;5.78;70.56;102307.08;1746432;81;20909;-82
2021/10/31 06:55:23;;;;;;;74.95;47.73;;;;;;;5.78;70.95;102304.48;1746071;81;20944;-80
2021/10/31 06:57:49;;;;;;;73.75;47.33;;;;;;;5.79;71.17;102308.37;1746426;81;21308;-81
2021/10/31 07:00:17;;;;;;;70.00;45.33;;;;;;;5.82;71.33;102311.37;1746134;81;21142;-85
2021/10/31 07:02:44;;;;;;;72.00;45.65;;;;;;;5.83;71.43;102311.81;1746664;82;20962;-84
2021/10/31 07:05:11;;;;;;;65.17;46.18;;;;;;;5.84;71.54;102308.76;1746483;81;20901;-84
2021/10/31 07:07:40;;;;;;;72.60;47.60;;;;;;;5.84;71.56;102310.06;1746702;80;21006;-89
2021/10/31 07:10:07;;;;;;;71.53;46.28;;;;;;;5.83;71.63;102311.81;1746347;82;21008;-83
2021/10/31 07:12:34;;;;;;;74.22;50.28;;;;;;;5.84;71.64;102305.70;1746323;81;21442;-83
2021/10/31 07:15:01;;;;;;;63.58;46.42;;;;;;;5.89;71.57;102303.92;1745964;81;20933;-82
2021/10/31 07:17:28;;;;;;;73.30;47.98;;;;;;;5.94;71.56;102299.96;1745541;81;21015;-82
2021/10/31 07:19:55;;;;;;;66.45;45.38;;;;;;;6.01;71.50;102307.69;1745808;82;20941;-83
2021/10/31 07:22:22;;;;;;;67.17;44.85;;;;;;;6.11;71.48;102309.70;1745680;81;20992;-82
2021/10/31 07:24:51;;;;;;;66.75;43.63;;;;;;;6.25;71.22;102312.55;1746356;81;21097;-83
2021/10/31 07:27:18;;;;;;;63.90;43.00;;;;;;;6.36;70.98;102308.93;1745784;81;20861;-82
2021/10/31 07:29:46;;;;;;;66.67;46.18;;;;;;;6.44;70.55;102304.44;1745566;81;20924;-82
2021/10/31 07:32:13;;;;;;;69.07;46.73;;;;;;;6.48;70.36;102305.71;1745194;80;20999;-80
2021/10/31 07:34:40;;;;;;;70.55;46.75;;;;;;;6.49;70.10;102304.39;1744855;81;21151;-79
2021/10/31 07:37:07;;;;;;;72.30;44.50;;;;;;;6.52;69.95;102300.42;1744366;81;21515;-75
2021/10/31 07:39:35;;;;;;;68.67;45.92;;;;;;;6.56;69.93;102299.50;1744532;81;21472;-81
2021/10/31 07:42:02;;;;;;;68.52;46.73;;;;;;;6.64;69.88;102300.66;1745250;81;20993;-84
2021/10/31 07:44:30;;;;;;;61.23;43.20;;;;;;;6.71;69.82;102294.45;1746611;81;20980;-83
2021/10/31 07:46:57;;;;;;;66.12;41.20;;;;;;;6.79;69.82;102291.73;1746764;81;20865;-85
2021/10/31 07:49:23;;;;;;;57.27;39.98;;;;;;;6.87;69.72;102280.73;1747117;81;21101;-84
2021/10/31 07:51:51;;;;;;;66.72;41.20;;;;;;;6.99;69.61;102279.19;1746837;82;20869;-84
2021/10/31 07:54:24;;;;;;;50.52;33.60;;;;;;;7.14;69.66;102285.03;1746748;82;21366;-85
2021/10/31 07:56:49;;;;;;;49.63;31.82;;;;;;;7.29;69.23;102277.33;1744624;81;20933;-82
2021/10/31 07:59:17;;;;;;;44.40;32.10;;;;;;;7.44;68.88;102275.27;1744838;81;20857;-80
2021/10/31 08:01:44;;;;;;;32.40;22.37;;;;;;;7.63;68.52;102274.46;1744682;82;21117;-79
2021/10/31 08:04:12;;;;;;;29.45;19.55;;;;;;;7.82;67.89;102280.13;1744647;80;20941;-79
2021/10/31 08:06:40;;;;;;;31.97;18.60;;;;;;;8.04;67.02;102277.91;1744516;81;20897;-79
2021/10/31 08:09:07;;;;;;;25.88;17.65;;;;;;;8.25;66.70;102278.33;1744802;82;20916;-79
2021/10/31 08:11:34;;;;;;;25.92;17.27;;;;;;;8.43;65.46;102277.06;1744614;81;21449;-82
2021/10/31 08:14:01;;;;;;;30.52;18.37;;;;;;;8.63;64.90;102272.64;1744413;81;21761;-79
2021/10/31 08:16:31;;;;;;;30.72;17.37;;;;;;;8.77;64.31;102273.14;1744558;81;20929;-78
2021/10/31 08:18:57;;;;;;;25.95;17.77;;;;;;;8.92;63.79;102271.89;1744826;80;21003;-79
2021/10/31 08:21:26;;;;;;;21.05;14.87;;;;;;;9.08;63.26;102275.80;1744571;81;20905;-80
2021/10/31 08:23:53;;;;;;;20.85;14.55;;;;;;;9.22;62.52;102275.88;1744707;81;20968;-80
2021/10/31 08:26:21;;;;;;;28.52;16.10;;;;;;;9.34;62.16;102272.93;1744601;81;21100;-80
2021/10/31 08:28:49;;;;;;;25.00;16.02;;;;;;;9.46;61.69;102263.85;1744891;80;20889;-79
2021/10/31 08:31:26;;;;;;;23.73;15.05;;;;;;;9.59;61.14;102263.05;1744799;81;20945;-79
2021/10/31 08:33:59;;;;;;;24.10;14.55;;;;;;;9.72;60.46;102257.86;1744686;82;20980;-80
2021/10/31 08:36:27;;;;;;;25.02;14.58;;;;;;;9.86;60.01;102255.66;1746139;80;21025;-78
2021/10/31 08:38:54;;;;;;;19.67;13.45;;;;;;;10.04;59.54;102253.37;1758183;80;21786;-78
2021/10/31 08:41:25;;;;;;;24.47;12.98;;;;;;;10.40;58.65;102239.55;1758008;81;20889;-79
2021/10/31 08:43:55;;;;;;;26.17;12.82;;;;;;;11.01;57.63;102235.29;1758976;81;20995;-84
2021/10/31 08:46:22;;;;;;;26.37;15.68;;;;;;;12.00;56.25;102239.86;1759288;80;21231;-81
2021/10/31 08:48:49;;;;;;;21.45;15.65;;;;;;;12.95;54.02;102232.86;1759008;80;20841;-81
2021/10/31 08:51:17;;;;;;;26.42;18.60;;;;;;;13.73;51.54;102233.73;1758845;80;21112;-84
2021/10/31 08:53:44;;;;;;;30.37;20.23;;;;;;;14.48;49.92;102228.74;1759056;80;20955;-82
2021/10/31 08:56:13;;;;;;;30.62;19.95;;;;;;;15.92;46.46;102226.83;1759268;80;20911;-84
2021/10/31 08:58:43;;;;;;;25.48;19.90;;;;;;;16.60;45.44;102222.40;1759697;81;20959;-83
2021/10/31 09:01:14;;;;;;;26.07;17.40;;;;;;;16.60;45.44;102222.40;1759702;81;20856;-84
2021/10/31 09:03:42;;;;;;;25.40;17.12;;;;;;;17.28;43.84;102219.64;1759897;81;21200;-84
2021/10/31 09:06:10;;;;;;;20.45;13.53;;;;;;;18.04;42.72;102221.84;1758797;81;21362;-77
2021/10/31 09:08:39;;;;;;;15.20;9.03;;;;;;;18.76;40.14;102219.61;1758089;80;20876;-75
2021/10/31 09:11:07;;;;;;;8.98;8.08;;;;;;;19.26;36.44;102207.75;1757891;80;20995;-77
2021/10/31 09:13:33;;;;;;;10.85;8.20;;;;;;;19.48;36.87;102204.41;1758008;81;21478;-76
2021/10/31 09:16:01;;;;;;;11.25;7.10;;;;;;;19.73;36.35;102199.97;1757858;81;21158;-79
2021/10/31 09:18:28;;;;;;;8.30;6.70;;;;;;;20.12;35.44;102192.63;1758170;81;20896;-79
2021/10/31 09:20:56;;;;;;;8.28;6.92;;;;;;;20.40;33.89;102193.56;1757850;81;20972;-80
2021/10/31 09:23:24;;;;;;;9.00;6.35;;;;;;;20.39;33.50;102192.37;1758204;81;20923;-78
2021/10/31 09:25:52;;;;;;;9.30;7.50;;;;;;;20.43;33.57;102188.02;1757865;81;21037;-77
2021/10/31 09:28:19;;;;;;;8.18;7.00;;;;;;;20.53;33.15;102184.14;1757889;81;21145;-77
2021/10/31 09:30:46;;;;;;;10.53;7.75;;;;;;;20.61;33.08;102199.10;1758008;80;20979;-79
2021/10/31 09:33:14;;;;;;;12.43;6.70;;;;;;;20.78;32.62;102183.59;1757804;80;20963;-76
2021/10/31 09:35:45;;;;;;;9.40;8.35;;;;;;;20.90;32.89;102181.31;1757721;81;21030;-78
2021/10/31 09:38:12;;;;;;;8.43;7.33;;;;;;;21.07;32.68;102166.13;1748385;81;21432;-77
2021/10/31 09:40:39;;;;;;;10.13;7.42;;;;;;;21.30;32.12;102166.12;1744500;81;21127;-78
2021/10/31 09:43:06;;;;;;;9.33;7.15;;;;;;;21.45;31.74;102167.54;1744759;81;20972;-76
2021/10/31 09:45:36;;;;;;;11.43;7.53;;;;;;;21.55;31.04;102161.48;1744549;81;21557;-75
2021/10/31 09:48:12;;;;;;;9.43;7.45;;;;;;;21.47;31.22;102164.76;1744962;81;20971;-76
2021/10/31 09:50:48;;;;;;;12.13;7.58;;;;;;;21.45;31.46;102151.53;1744344;81;20920;-77
2021/10/31 09:53:18;;;;;;;12.13;8.90;;;;;;;21.64;31.44;102148.20;1745056;80;21490;-77
2021/10/31 09:55:47;;;;;;;10.72;8.03;;;;;;;21.92;30.67;102139.21;1744413;81;21020;-77
2021/10/31 09:58:19;;;;;;;10.32;8.00;;;;;;;22.17;30.78;102133.16;1744898;81;20944;-76
2021/10/31 10:00:47;;;;;;;11.20;9.18;;;;;;;22.32;29.88;102134.52;1744366;81;20980;-78
2021/10/31 10:03:34;;;;;;;10.45;9.30;;;;;;;22.30;29.99;102125.31;1744830;82;20874;-77
2021/10/31 10:06:12;;;;;;;16.30;12.05;;;;;;;22.23;30.36;102125.49;1743595;81;21157;-76
2021/10/31 10:09:09;;;;;;;15.50;11.33;;;;;;;22.43;30.24;102111.72;1744416;81;20921;-76
2021/10/31 10:11:40;;;;;;;15.43;10.53;;;;;;;22.70;29.84;102108.48;1744681;81;20940;-75
2021/10/31 10:14:22;;;;;;;15.85;10.93;;;;;;;22.72;29.76;102105.18;1744657;81;20932;-77
2021/10/31 10:16:47;;;;;;;19.87;13.18;;;;;;;22.78;29.67;102098.92;1744564;81;20912;-77
2021/10/31 10:19:28;;;;;;;25.40;16.42;;;;;;;22.87;29.62;102092.25;1744856;81;21747;-77
2021/10/31 10:22:14;;;;;;;17.48;13.30;;;;;;;22.92;29.32;102095.85;1744701;80;20917;-76
2021/10/31 10:25:00;;;;;;;19.52;12.70;;;;;;;22.88;28.97;102095.30;1744458;81;20897;-76
2021/10/31 10:27:30;;;;;;;15.40;10.95;;;;;;;22.55;29.18;102087.09;1744710;82;20869;-77
2021/10/31 10:29:57;;;;;;;13.30;9.28;;;;;;;22.21;29.65;102094.47;1744387;81;20920;-76
2021/10/31 10:32:26;;;;;;;13.13;8.85;;;;;;;22.18;30.12;102088.91;1744501;82;22143;-78
2021/10/31 10:34:56;;;;;;;9.13;7.62;;;;;;;22.46;29.84;102073.20;1744693;81;20941;-77
2021/10/31 10:37:34;;;;;;;11.95;8.33;;;;;;;22.76;29.71;102067.79;1744632;80;20984;-79
2021/10/31 10:40:09;;;;;;;12.05;7.95;;;;;;;23.15;29.28;102066.58;1744444;81;21382;-77
2021/10/31 10:42:40;;;;;;;12.78;7.53;;;;;;;23.45;28.52;102062.08;1744889;81;21477;-76
2021/10/31 10:45:10;;;;;;;12.07;7.95;;;;;;;23.40;28.20;102051.45;1744543;80;21144;-78
2021/10/31 10:47:57;;;;;;;13.03;8.23;;;;;;;23.09;28.37;102051.57;1744772;81;21343;-77
2021/10/31 10:50:28;;;;;;;10.63;9.53;;;;;;;22.55;28.91;102044.31;1744406;81;21041;-79
2021/10/31 10:52:54;;;;;;;12.28;9.10;;;;;;;22.07;29.42;102043.56;1744742;81;20953;-76
2021/10/31 10:55:27;;;;;;;12.35;9.90;;;;;;;21.57;29.95;102044.73;1744543;81;20877;-77
2021/10/31 10:58:01;;;;;;;13.48;10.00;;;;;;;21.08;30.67;102045.62;1744707;82;21116;-77
2021/10/31 11:00:37;;;;;;;12.78;10.38;;;;;;;20.61;31.24;102039.16;1744525;81;21344;-78
2021/10/31 11:03:18;;;;;;;17.10;9.88;;;;;;;20.18;31.86;102035.00;1744547;81;20929;-77
2021/10/31 11:05:51;;;;;;;12.33;9.43;;;;;;;19.82;32.57;102036.89;1744528;81;21514;-78
2021/10/31 11:08:20;;;;;;;11.75;8.80;;;;;;;19.55;32.93;102034.48;1744472;81;20846;-76
2021/10/31 11:11:00;;;;;;;13.58;8.70;;;;;;;19.22;33.45;102027.58;1744545;81;20921;-76
2021/10/31 11:13:29;;;;;;;15.10;10.65;;;;;;;18.82;34.06;102027.84;1744390;80;20873;-77
2021/10/31 11:16:03;;;;;;;17.20;9.05;;;;;;;18.35;34.88;102018.78;1744465;81;20905;-76
2021/10/31 11:18:27;;;;;;;10.72;7.92;;;;;;;18.10;35.34;102024.97;1743792;81;20920;-76
2021/10/31 11:20:54;;;;;;;7.90;7.08;;;;;;;17.77;35.94;102022.79;1744591;81;21491;-77
2021/10/31 11:23:21;;;;;;;12.78;8.25;;;;;;;17.42;36.66;102018.05;1744828;81;22091;-76
2021/10/31 11:25:50;;;;;;;14.18;9.20;;;;;;;17.16;37.09;102008.70;1744260;80;20897;-76
2021/10/31 11:28:19;;;;;;;14.35;9.65;;;;;;;16.91;37.66;102015.21;1744626;81;20928;-76